createdAt,value
2023-02-09T00:00:07.197Z,102101.03
2023-02-09T00:02:34.044Z,102113.13
2023-02-09T00:05:00.817Z,102109.81
2023-02-09T00:07:27.607Z,102113.41
2023-02-09T00:09:54.316Z,102120.28
2023-02-09T00:12:39.695Z,102120.56
2023-02-09T00:15:07.258Z,102124.94
2023-02-09T00:17:35.960Z,102116.72
2023-02-09T00:20:05.355Z,102121.91
2023-02-09T00:22:32.313Z,102133.44
2023-02-09T00:24:59.164Z,102141.69
2023-02-09T00:27:25.986Z,102142.78
2023-02-09T00:29:52.802Z,102156.78
2023-02-09T00:32:19.554Z,102154.84
2023-02-09T00:34:46.399Z,102155.94
2023-02-09T00:37:13.361Z,102163.63
2023-02-09T00:39:40.106Z,102154.84
2023-02-09T00:42:06.853Z,102161.41
2023-02-09T00:44:40.092Z,102173.75
2023-02-09T00:47:08.650Z,102164.16
2023-02-09T00:49:35.895Z,102180.31
2023-02-09T00:52:02.763Z,102174.00
2023-02-09T00:54:29.653Z,102176.72
2023-02-09T00:56:56.495Z,102189.91
2023-02-09T00:59:23.287Z,102190.19
2023-02-09T01:01:50.056Z,102191.78
2023-02-09T01:04:16.884Z,102194.81
2023-02-09T01:06:43.720Z,102199.19
2023-02-09T01:09:10.396Z,102207.94
2023-02-09T01:11:37.150Z,102211.25
2023-02-09T01:14:04.649Z,102220.00
2023-02-09T01:16:32.311Z,102217.78
2023-02-09T01:19:01.318Z,102227.09
2023-02-09T01:21:28.704Z,102224.31
2023-02-09T01:23:55.893Z,102215.56
2023-02-09T01:26:22.996Z,102216.09
2023-02-09T01:28:53.337Z,102194.69
2023-02-09T01:31:29.946Z,102194.41
2023-02-09T01:33:58.893Z,102202.06
2023-02-09T01:36:25.974Z,102206.72
2023-02-09T01:38:56.368Z,102200.13
2023-02-09T01:41:23.471Z,102205.59
2023-02-09T01:44:00.306Z,102222.56
2023-02-09T01:46:30.088Z,102219.59
2023-02-09T01:49:06.404Z,102225.59
2023-02-09T01:51:38.345Z,102216.00
2023-02-09T01:54:09.685Z,102222.00
2023-02-09T01:56:40.791Z,102218.69
2023-02-09T01:59:09.658Z,102230.19
2023-02-09T02:01:37.764Z,102228.81
2023-02-09T02:04:05.635Z,102220.28
2023-02-09T02:06:32.614Z,102231.50
2023-02-09T02:09:11.325Z,102228.47
2023-02-09T02:11:40.504Z,102228.16
2023-02-09T02:14:07.233Z,102235.00
2023-02-09T02:17:02.163Z,102231.16
2023-02-09T02:20:06.543Z,102230.00
2023-02-09T02:22:33.233Z,102228.63
2023-02-09T02:25:36.979Z,102230.25
2023-02-09T02:28:41.814Z,102226.13
2023-02-09T02:31:29.931Z,102223.91
2023-02-09T02:34:20.348Z,102218.38
2023-02-09T02:37:10.090Z,102234.22
2023-02-09T02:39:58.589Z,102233.13
2023-02-09T02:42:50.072Z,102236.94
2023-02-09T02:45:38.833Z,102232.00
2023-02-09T02:48:18.648Z,102241.28
2023-02-09T02:50:54.581Z,102253.03
2023-02-09T02:53:26.717Z,102257.66
2023-02-09T02:55:56.709Z,102259.84
2023-02-09T02:58:25.868Z,102259.25
2023-02-09T03:00:57.615Z,102256.53
2023-02-09T03:03:32.865Z,102255.97
2023-02-09T03:06:03.636Z,102244.19
2023-02-09T03:08:30.689Z,102242.28
2023-02-09T03:10:58.263Z,102250.50
2023-02-09T03:13:54.242Z,102247.19
2023-02-09T03:16:26.913Z,102255.38
2023-02-09T03:19:04.754Z,102263.53
2023-02-09T03:21:46.584Z,102267.03
2023-02-09T03:24:24.628Z,102268.34
2023-02-09T03:26:57.738Z,102280.41
2023-02-09T03:29:27.737Z,102278.75
2023-02-09T03:31:55.293Z,102273.53
2023-02-09T03:34:22.048Z,102269.41
2023-02-09T03:36:54.720Z,102260.63
2023-02-09T03:39:21.819Z,102254.59
2023-02-09T03:41:48.574Z,102253.75
2023-02-09T03:44:27.649Z,102255.38
2023-02-09T03:47:00.521Z,102243.03
2023-02-09T03:49:31.799Z,102247.09
2023-02-09T03:52:00.913Z,102240.25
2023-02-09T03:54:29.828Z,102240.19
2023-02-09T03:56:57.819Z,102245.06
2023-02-09T03:59:28.053Z,102248.34
2023-02-09T04:01:56.635Z,102233.78
2023-02-09T04:04:24.369Z,102235.38
2023-02-09T04:06:51.404Z,102243.25
2023-02-09T04:09:18.258Z,102247.91
2023-02-09T04:11:45.117Z,102245.41
2023-02-09T04:14:11.861Z,102256.84
2023-02-09T04:16:39.045Z,102264.50
2023-02-09T04:19:06.549Z,102258.19
2023-02-09T04:21:33.283Z,102257.41
2023-02-09T04:24:00.043Z,102257.41
2023-02-09T04:26:26.833Z,102252.72
2023-02-09T04:28:54.663Z,102258.47
2023-02-09T04:31:21.429Z,102264.16
2023-02-09T04:33:48.249Z,102264.44
2023-02-09T04:36:15.451Z,102267.66
2023-02-09T04:38:42.170Z,102276.97
2023-02-09T04:41:09.848Z,102279.09
2023-02-09T04:43:36.762Z,102285.06
2023-02-09T04:46:03.805Z,102291.63
2023-02-09T04:48:31.126Z,102297.88
2023-02-09T04:50:58.149Z,102304.16
2023-02-09T04:53:25.192Z,102305.81
2023-02-09T04:55:52.924Z,102308.53
2023-02-09T04:58:40.284Z,102305.53
2023-02-09T05:01:09.436Z,102311.53
2023-02-09T05:03:36.233Z,102320.81
2023-02-09T05:06:05.096Z,102316.69
2023-02-09T05:08:32.506Z,102320.25
2023-02-09T05:10:59.327Z,102327.03
2023-02-09T05:13:26.732Z,102331.66
2023-02-09T05:15:54.055Z,102327.84
2023-02-09T05:18:21.515Z,102336.88
2023-02-09T05:20:48.966Z,102342.34
2023-02-09T05:23:16.373Z,102340.09
2023-02-09T05:25:43.217Z,102342.84
2023-02-09T05:28:09.939Z,102333.00
2023-02-09T05:30:37.709Z,102335.72
2023-02-09T05:33:04.781Z,102333.00
2023-02-09T05:35:31.732Z,102333.00
2023-02-09T05:37:58.427Z,102330.78
2023-02-09T05:40:25.287Z,102339.97
2023-02-09T05:42:51.981Z,102336.66
2023-02-09T05:45:18.874Z,102336.66
2023-02-09T05:47:46.856Z,102344.28
2023-02-09T05:50:13.894Z,102345.34
2023-02-09T05:52:40.662Z,102350.25
2023-02-09T05:55:07.443Z,102358.66
2023-02-09T05:57:34.177Z,102353.72
2023-02-09T06:00:01.019Z,102355.06
2023-02-09T06:02:27.983Z,102354.22
2023-02-09T06:04:56.870Z,102349.00
2023-02-09T06:07:23.624Z,102357.44
2023-02-09T06:09:50.501Z,102353.88
2023-02-09T06:12:17.235Z,102364.25
2023-02-09T06:14:43.997Z,102369.13
2023-02-09T06:17:10.798Z,102378.38
2023-02-09T06:19:38.274Z,102372.34
2023-02-09T06:22:05.522Z,102375.31
2023-02-09T06:24:32.222Z,102364.66
2023-02-09T06:26:59.021Z,102373.06
2023-02-09T06:29:25.840Z,102374.41
2023-02-09T06:31:52.998Z,102379.06
2023-02-09T06:34:19.806Z,102382.50
2023-02-09T06:36:46.512Z,102380.88
2023-02-09T06:39:13.222Z,102387.16
2023-02-09T06:41:40.063Z,102387.16
2023-02-09T06:44:06.844Z,102395.59
2023-02-09T06:46:33.686Z,102397.75
2023-02-09T06:49:00.568Z,102400.47
2023-02-09T06:51:27.495Z,102399.38
2023-02-09T06:53:54.311Z,102408.66
2023-02-09T06:56:21.467Z,102404.25
2023-02-09T06:58:48.361Z,102412.47
2023-02-09T07:01:16.221Z,102408.66
2023-02-09T07:03:43.381Z,102418.50
2023-02-09T07:06:16.257Z,102417.44
2023-02-09T07:08:43.687Z,102426.69
2023-02-09T07:11:13.732Z,102429.41
2023-02-09T07:13:40.507Z,102437.59
2023-02-09T07:16:09.401Z,102433.81
2023-02-09T07:18:37.238Z,102435.47
2023-02-09T07:21:08.779Z,102430.84
2023-02-09T07:23:36.448Z,102427.88
2023-02-09T07:26:08.954Z,102415.28
2023-02-09T07:28:37.990Z,102426.19
2023-02-09T07:31:07.828Z,102428.34
2023-02-09T07:33:35.422Z,102425.41
2023-02-09T07:36:06.788Z,102427.28
2023-02-09T07:38:34.135Z,102431.91
2023-02-09T07:41:02.666Z,102434.66
2023-02-09T07:43:29.629Z,102426.47
2023-02-09T07:46:05.272Z,102426.69
2023-02-09T07:48:33.062Z,102428.34
2023-02-09T07:51:00.357Z,102439.28
2023-02-09T07:53:28.353Z,102442.59
2023-02-09T07:55:55.524Z,102456.00
2023-02-09T07:58:23.111Z,102462.88
2023-02-09T08:00:51.144Z,102463.44
2023-02-09T08:03:21.425Z,102464.88
2023-02-09T08:05:56.988Z,102486.47
2023-02-09T08:08:23.748Z,102486.81
2023-02-09T08:10:51.070Z,102485.47
2023-02-09T08:13:18.155Z,102495.91
2023-02-09T08:15:49.302Z,102495.44
2023-02-09T08:18:21.629Z,102502.88
2023-02-09T08:20:52.191Z,102505.97
2023-02-09T08:23:28.864Z,102515.06
2023-02-09T08:25:56.968Z,102514.31
2023-02-09T08:28:34.820Z,102512.03
2023-02-09T08:31:11.262Z,102515.69
2023-02-09T08:33:40.150Z,102519.56
2023-02-09T08:36:07.268Z,102525.72
2023-02-09T08:38:36.810Z,102527.44
2023-02-09T08:41:08.367Z,102529.44
2023-02-09T08:43:35.710Z,102530.94
2023-02-09T08:46:11.668Z,102539.22
2023-02-09T08:48:40.519Z,102539.28
2023-02-09T08:51:08.696Z,102542.03
2023-02-09T08:53:35.614Z,102538.13
2023-02-09T08:56:02.389Z,102553.94
2023-02-09T08:58:30.400Z,102553.38
2023-02-09T09:00:57.521Z,102552.81
2023-02-09T09:03:30.017Z,102550.06
2023-02-09T09:06:01.722Z,102550.91
2023-02-09T09:08:29.310Z,102556.13
2023-02-09T09:10:56.267Z,102562.41
2023-02-09T09:13:24.412Z,102566.00
2023-02-09T09:15:52.618Z,102553.47
2023-02-09T09:18:19.454Z,102562.22
2023-02-09T09:20:46.233Z,102563.41
2023-02-09T09:23:13.325Z,102553.63
2023-02-09T09:25:40.576Z,102565.72
2023-02-09T09:28:08.644Z,102564.13
2023-02-09T09:30:36.815Z,102571.34
2023-02-09T09:33:03.780Z,102564.28
2023-02-09T09:35:31.794Z,102583.28
2023-02-09T09:37:58.767Z,102578.16
2023-02-09T09:40:30.005Z,102587.25
2023-02-09T09:43:00.745Z,102585.41
2023-02-09T09:45:30.080Z,102603.00
2023-02-09T09:47:57.502Z,102603.06
2023-02-09T09:50:39.191Z,102604.81
2023-02-09T09:53:33.427Z,102619.13
2023-02-09T09:56:08.222Z,102613.22
2023-02-09T09:58:39.214Z,102614.97
2023-02-09T10:01:06.911Z,102600.84
2023-02-09T10:03:33.707Z,102602.31
2023-02-09T10:06:11.537Z,102593.03
2023-02-09T10:08:55.563Z,102596.69
2023-02-09T10:11:32.358Z,102603.66
2023-02-09T10:13:59.474Z,102598.53
2023-02-09T10:16:29.224Z,102598.06
2023-02-09T10:19:01.937Z,102596.84
2023-02-09T10:21:31.438Z,102609.56
2023-02-09T10:24:00.856Z,102618.72
2023-02-09T10:26:33.215Z,102617.69
2023-02-09T10:29:07.306Z,102626.25
2023-02-09T10:31:40.487Z,102629.28
2023-02-09T10:34:15.526Z,102625.50
2023-02-09T10:36:51.878Z,102622.81
2023-02-09T10:39:30.473Z,102628.34
2023-02-09T10:42:14.416Z,102625.66
2023-02-09T10:44:48.957Z,102632.25
2023-02-09T10:47:23.524Z,102631.72
2023-02-09T10:49:55.189Z,102624.88
2023-02-09T10:52:24.011Z,102626.53
2023-02-09T10:54:56.944Z,102633.41
2023-02-09T10:57:30.175Z,102635.63
2023-02-09T11:00:00.262Z,102630.69
2023-02-09T11:02:35.642Z,102629.94
2023-02-09T11:05:04.362Z,102635.72
2023-02-09T11:07:41.211Z,102637.69
2023-02-09T11:10:12.858Z,102640.72
2023-02-09T11:12:39.628Z,102637.78
2023-02-09T11:15:14.203Z,102653.19
2023-02-09T11:17:50.981Z,102651.28
2023-02-09T11:20:50.281Z,102649.41
2023-02-09T11:23:38.355Z,102651.38
2023-02-09T11:26:17.642Z,102644.25
2023-02-09T11:28:48.062Z,102647.31
2023-02-09T11:31:27.239Z,102645.44
2023-02-09T11:34:00.126Z,102649.56
2023-02-09T11:36:39.010Z,102642.72
2023-02-09T11:39:19.628Z,102644.66
2023-02-09T11:42:13.968Z,102636.72
2023-02-09T11:44:56.908Z,102622.47
2023-02-09T11:47:33.409Z,102619.44
2023-02-09T11:50:04.985Z,102625.22
2023-02-09T11:52:38.350Z,102626.88
2023-02-09T11:55:38.474Z,102614.78
2023-02-09T11:58:33.877Z,102614.81
2023-02-09T12:01:42.772Z,102617.03
2023-02-09T12:04:15.840Z,102628.56
2023-02-09T12:06:48.555Z,102628.03
2023-02-09T12:09:24.438Z,102627.56
2023-02-09T12:12:20.496Z,102630.31
2023-02-09T12:15:00.357Z,102637.75
2023-02-09T12:17:39.204Z,102641.34
2023-02-09T12:20:06.834Z,102648.25
2023-02-09T12:22:33.689Z,102638.09
2023-02-09T12:25:12.551Z,102634.28
2023-02-09T12:27:44.004Z,102624.69
2023-02-09T12:30:30.313Z,102627.19
2023-02-09T12:33:24.614Z,102621.16
2023-02-09T12:36:09.344Z,102613.69
2023-02-09T12:38:56.826Z,102610.41
2023-02-09T12:41:42.900Z,102607.97
2023-02-09T12:44:09.551Z,102612.38
2023-02-09T12:46:45.635Z,102610.72
2023-02-09T12:49:12.291Z,102609.09
2023-02-09T12:51:47.816Z,102609.91
2023-02-09T12:54:41.004Z,102601.94
2023-02-09T12:57:16.815Z,102598.34
2023-02-09T12:59:56.290Z,102608.53
2023-02-09T13:02:29.430Z,102602.47
2023-02-09T13:04:56.064Z,102613.47
2023-02-09T13:07:29.984Z,102619.53
2023-02-09T13:10:00.737Z,102614.59
2023-02-09T13:12:39.243Z,102608.50
2023-02-09T13:15:13.285Z,102604.63
2023-02-09T13:18:06.915Z,102599.13
2023-02-09T13:20:36.596Z,102605.19
2023-02-09T13:23:36.207Z,102610.94
2023-02-09T13:26:17.787Z,102605.72
2023-02-09T13:28:44.574Z,102615.66
2023-02-09T13:31:26.162Z,102616.72
2023-02-09T13:33:58.050Z,102608.44
2023-02-09T13:37:06.437Z,102620.81
2023-02-09T13:39:37.794Z,102599.56
2023-02-09T13:42:25.811Z,102607.81
2023-02-09T13:44:55.653Z,102616.06
2023-02-09T13:47:23.130Z,102620.47
2023-02-09T13:50:00.898Z,102606.66
2023-02-09T13:52:33.687Z,102611.31
2023-02-09T13:55:32.435Z,102609.41
2023-02-09T13:58:02.974Z,102608.00
2023-02-09T14:00:42.595Z,102599.97
2023-02-09T14:03:20.384Z,102601.03
2023-02-09T14:05:50.256Z,102605.13
2023-02-09T14:08:19.074Z,102599.09
2023-02-09T14:11:07.497Z,102590.75
2023-02-09T14:13:42.666Z,102594.81
2023-02-09T14:16:15.729Z,102586.47
2023-02-09T14:19:00.597Z,102587.25
2023-02-09T14:21:40.174Z,102592.22
2023-02-09T14:24:19.243Z,102573.75
2023-02-09T14:26:48.313Z,102571.56
2023-02-09T14:29:18.202Z,102570.25
2023-02-09T14:32:33.275Z,102579.78
2023-02-09T14:35:17.438Z,102588.94
2023-02-09T14:37:44.898Z,102583.47
2023-02-09T14:40:11.972Z,102600.00
2023-02-09T14:42:57.737Z,102585.03
2023-02-09T14:45:32.198Z,102592.94
2023-02-09T14:47:58.948Z,102582.91
2023-02-09T14:50:25.713Z,102588.97
2023-02-09T14:53:05.300Z,102594.28
2023-02-09T14:55:33.716Z,102591.00
2023-02-09T14:58:00.481Z,102596.84
2023-02-09T15:00:29.221Z,102602.69
2023-02-09T15:02:57.202Z,102602.72
2023-02-09T15:05:26.091Z,102602.69
2023-02-09T15:07:56.379Z,102592.16
2023-02-09T15:10:27.976Z,102589.16
2023-02-09T15:12:55.440Z,102596.88
2023-02-09T15:15:23.428Z,102596.63
2023-02-09T15:17:50.493Z,102587.53
2023-02-09T15:20:21.499Z,102596.69
2023-02-09T15:22:48.193Z,102598.34
2023-02-09T15:25:15.687Z,102599.47
2023-02-09T15:27:51.947Z,102602.47
2023-02-09T15:30:24.751Z,102601.38
2023-02-09T15:32:51.659Z,102598.06
2023-02-09T15:35:21.548Z,102601.66
2023-02-09T15:37:57.577Z,102601.69
2023-02-09T15:40:50.289Z,102608.34
2023-02-09T15:43:39.451Z,102603.13
2023-02-09T15:46:07.353Z,102614.47
2023-02-09T15:48:36.924Z,102620.78
2023-02-09T15:51:03.899Z,102624.94
2023-02-09T15:53:32.089Z,102616.66
2023-02-09T15:55:59.661Z,102614.47
2023-02-09T15:58:35.274Z,102627.69
2023-02-09T16:01:02.485Z,102613.91
2023-02-09T16:03:31.779Z,102627.97
2023-02-09T16:06:01.701Z,102612.28
2023-02-09T16:08:32.570Z,102630.47
2023-02-09T16:11:01.159Z,102632.97
2023-02-09T16:13:28.182Z,102628.03
2023-02-09T16:16:00.319Z,102632.16
2023-02-09T16:18:34.812Z,102632.44
2023-02-09T16:21:01.554Z,102631.59
2023-02-09T16:23:28.317Z,102634.94
2023-02-09T16:25:55.359Z,102641.78
2023-02-09T16:28:22.359Z,102642.63
2023-02-09T16:30:57.665Z,102639.34
2023-02-09T16:33:25.954Z,102646.22
2023-02-09T16:35:58.972Z,102641.00
2023-02-09T16:38:26.999Z,102643.47
2023-02-09T16:40:55.638Z,102640.44
2023-02-09T16:43:23.165Z,102646.50
2023-02-09T16:46:02.820Z,102638.81
2023-02-09T16:48:32.436Z,102648.19
2023-02-09T16:50:59.706Z,102653.94
2023-02-09T16:53:32.881Z,102664.72
2023-02-09T16:56:05.812Z,102662.50
2023-02-09T16:58:32.612Z,102670.22
2023-02-09T17:00:59.413Z,102679.03
2023-02-09T17:03:31.558Z,102679.28
2023-02-09T17:05:58.410Z,102674.91
2023-02-09T17:08:27.721Z,102685.38
2023-02-09T17:10:56.381Z,102677.38
2023-02-09T17:13:23.639Z,102673.25
2023-02-09T17:15:59.148Z,102680.13
2023-02-09T17:18:31.051Z,102677.66
2023-02-09T17:21:02.099Z,102679.03
2023-02-09T17:23:30.906Z,102682.88
2023-02-09T17:25:57.995Z,102685.91
2023-02-09T17:28:26.625Z,102692.78
2023-02-09T17:30:57.664Z,102701.31
2023-02-09T17:33:35.752Z,102705.44
2023-02-09T17:36:25.353Z,102696.63
2023-02-09T17:38:50.820Z,102697.72
2023-02-09T17:41:26.700Z,102707.09
2023-02-09T17:43:54.370Z,102706.53
2023-02-09T17:46:21.436Z,102686.72
2023-02-09T17:48:49.009Z,102686.16
2023-02-09T17:51:28.823Z,102686.16
2023-02-09T17:53:55.982Z,102696.63
2023-02-09T17:56:22.732Z,102701.56
2023-02-09T17:58:49.612Z,102710.94
2023-02-09T18:01:27.868Z,102711.75
2023-02-09T18:04:01.801Z,102712.00
2023-02-09T18:06:37.597Z,102713.09
2023-02-09T18:09:08.511Z,102716.69
2023-02-09T18:11:52.492Z,102723.03
2023-02-09T18:14:21.441Z,102719.72
2023-02-09T18:16:48.487Z,102726.31
2023-02-09T18:19:18.774Z,102732.94
2023-02-09T18:21:54.596Z,102734.00
2023-02-09T18:24:22.999Z,102735.94
2023-02-09T18:26:51.263Z,102739.53
2023-02-09T18:29:20.362Z,102745.03
2023-02-09T18:31:47.163Z,102751.34
2023-02-09T18:34:15.298Z,102743.09
2023-02-09T18:36:42.477Z,102739.53
2023-02-09T18:39:09.297Z,102735.09
2023-02-09T18:41:36.047Z,102739.78
2023-02-09T18:44:02.910Z,102729.03
2023-02-09T18:46:29.744Z,102727.97
2023-02-09T18:48:56.698Z,102719.97
2023-02-09T18:51:23.686Z,102716.66
2023-02-09T18:53:51.339Z,102726.81
2023-02-09T18:56:22.627Z,102729.59
2023-02-09T18:58:50.331Z,102720.50
2023-02-09T19:01:20.524Z,102714.19
2023-02-09T19:03:54.292Z,102727.38
2023-02-09T19:06:22.755Z,102725.72
2023-02-09T19:08:50.517Z,102718.00
2023-02-09T19:11:19.882Z,102720.75
2023-02-09T19:14:05.716Z,102716.91
2023-02-09T19:16:32.779Z,102720.75
2023-02-09T19:19:00.794Z,102717.47
2023-02-09T19:21:28.365Z,102716.63
2023-02-09T19:23:55.456Z,102713.03
2023-02-09T19:26:22.346Z,102718.00
2023-02-09T19:28:49.266Z,102713.56
2023-02-09T19:31:17.795Z,102718.53
2023-02-09T19:33:44.704Z,102720.72
2023-02-09T19:36:12.069Z,102714.09
2023-02-09T19:38:38.860Z,102709.13
2023-02-09T19:41:12.561Z,102696.19
2023-02-09T19:43:40.092Z,102687.09
2023-02-09T19:46:09.999Z,102681.28
2023-02-09T19:48:38.527Z,102681.03
2023-02-09T19:51:06.827Z,102694.75
2023-02-09T19:53:33.974Z,102702.41
2023-02-09T19:56:00.893Z,102706.81
2023-02-09T19:58:27.992Z,102713.66
2023-02-09T20:00:56.195Z,102719.16
2023-02-09T20:03:23.959Z,102720.25
2023-02-09T20:05:51.498Z,102723.28
2023-02-09T20:08:20.499Z,102725.19
2023-02-09T20:10:47.636Z,102734.28
2023-02-09T20:13:15.939Z,102733.19
2023-02-09T20:15:44.202Z,102736.50
2023-02-09T20:18:13.436Z,102735.38
2023-02-09T20:20:43.360Z,102744.47
2023-02-09T20:23:10.487Z,102740.34
2023-02-09T20:25:41.034Z,102757.41
2023-02-09T20:28:08.078Z,102752.75
2023-02-09T20:30:35.294Z,102753.56
2023-02-09T20:33:02.020Z,102748.06
2023-02-09T20:35:28.766Z,102760.75
2023-02-09T20:37:55.647Z,102760.75
2023-02-09T20:40:22.808Z,102754.66
2023-02-09T20:43:08.069Z,102762.91
2023-02-09T20:45:53.679Z,102770.59
2023-02-09T20:48:20.457Z,102770.34
2023-02-09T20:50:47.515Z,102767.59
2023-02-09T20:53:14.479Z,102765.09
2023-02-09T20:55:42.757Z,102764.56
2023-02-09T20:58:11.903Z,102764.56
2023-02-09T21:00:39.357Z,102755.47
2023-02-09T21:03:07.489Z,102759.31
2023-02-09T21:05:34.840Z,102753.00
2023-02-09T21:08:04.511Z,102765.91
2023-02-09T21:10:35.880Z,102747.19
2023-02-09T21:13:06.107Z,102754.88
2023-02-09T21:15:33.075Z,102761.19
2023-02-09T21:18:01.013Z,102756.22
2023-02-09T21:20:32.168Z,102758.66
2023-02-09T21:22:58.997Z,102759.16
2023-02-09T21:25:27.759Z,102753.63
2023-02-09T21:27:55.972Z,102747.81
2023-02-09T21:30:22.820Z,102752.75
2023-02-09T21:32:49.627Z,102751.34
2023-02-09T21:35:16.716Z,102747.78
2023-02-09T21:37:43.400Z,102751.63
2023-02-09T21:40:12.500Z,102758.22
2023-02-09T21:42:39.928Z,102759.28
2023-02-09T21:45:08.025Z,102758.72
2023-02-09T21:47:37.835Z,102747.19
2023-02-09T21:50:07.043Z,102754.88
2023-02-09T21:52:34.712Z,102752.88
2023-02-09T21:55:01.541Z,102750.94
2023-02-09T21:57:28.311Z,102742.66
2023-02-09T21:59:56.720Z,102761.84
2023-02-09T22:02:23.571Z,102764.03
2023-02-09T22:04:50.702Z,102767.31
2023-02-09T22:07:19.710Z,102781.56
2023-02-09T22:09:46.920Z,102772.75
2023-02-09T22:12:13.633Z,102777.41
2023-02-09T22:14:40.370Z,102780.44
2023-02-09T22:17:07.119Z,102783.41
2023-02-09T22:19:34.056Z,102773.78
2023-02-09T22:22:01.815Z,102764.97
2023-02-09T22:24:30.098Z,102769.31
2023-02-09T22:26:58.237Z,102767.38
2023-02-09T22:29:24.956Z,102765.69
2023-02-09T22:31:51.744Z,102754.44
2023-02-09T22:34:18.592Z,102767.59
2023-02-09T22:36:45.895Z,102748.28
2023-02-09T22:39:12.970Z,102750.47
2023-02-09T22:41:39.776Z,102761.72
2023-02-09T22:44:10.202Z,102757.81
2023-02-09T22:46:39.303Z,102749.03
2023-02-09T22:49:14.661Z,102753.13
2023-02-09T22:51:41.440Z,102750.88
2023-02-09T22:54:08.145Z,102747.59
2023-02-09T22:56:34.951Z,102749.75
2023-02-09T22:59:01.892Z,102746.44
2023-02-09T23:01:29.569Z,102747.78
2023-02-09T23:03:57.331Z,102734.59
2023-02-09T23:06:27.255Z,102745.81
2023-02-09T23:08:59.513Z,102746.09
2023-02-09T23:11:27.187Z,102739.19
2023-02-09T23:14:08.400Z,102741.34
2023-02-09T23:16:37.107Z,102737.19
2023-02-09T23:19:07.003Z,102737.19
2023-02-09T23:21:39.439Z,102732.00
2023-02-09T23:24:06.669Z,102734.72
2023-02-09T23:26:33.888Z,102729.47
2023-02-09T23:29:03.817Z,102735.25
2023-02-09T23:31:31.334Z,102742.06
2023-02-09T23:33:58.146Z,102745.09
2023-02-09T23:36:27.831Z,102735.47
2023-02-09T23:39:00.118Z,102742.25
2023-02-09T23:41:30.142Z,102746.09
2023-02-09T23:43:57.359Z,102746.59
2023-02-09T23:46:28.604Z,102741.63
2023-02-09T23:48:56.397Z,102750.38
2023-02-09T23:51:26.839Z,102732.50
2023-02-09T23:53:55.368Z,102732.22
2023-02-09T23:56:22.801Z,102737.38
2023-02-09T23:58:50.942Z,102737.03
